메인 페이지
METAR-TAF:

METAR-TAF

공항 :

카불 국제공항

카불, 아프가니스탄

위도: 34-38N, 경도: 069-12E, 고도: 1789m

현재 날씨관측

예보는 34분 전, 22:50시(UTC)에 발표되었습니다.
남동5kt
온도 4°C
습도 100%
기압 1018 hPa
시정: 7000m
고도 3000ft 상공 흐림

METAR: OAKB 312250Z 13005KT 7000 OVC030 04/04 Q1018 RMK A3009 WHT WHT

시각: 03:54 (23:24 UTC)

예보

예보는 6 시간 19분 전, 17:05시(UTC)에 발표되었습니다.
예보 대상 시간: 31일 18시부터 01일 18시까지 (UTC)
여러 방향의 바람 2kt
시정: 7000m
고도 1000ft 상공 구름 조금
고도 2000ft 상공 구름 보통
고도 4000ft 상공 구름 많음
전환 중
01일 02시부터 01일 04시까지 (UTC)
북북서8kt
시정 10km 이상
고도 4000ft 상공 구름 보통
전환 중
01일 04시부터 01일 06시까지 (UTC)
고도 4000ft 상공 구름 많음
일시적
01일 06시부터 01일 14시까지 (UTC)
시정: 8000m
고도 3000ft 상공 구름 보통
고도 5000ft 상공 구름 많음
약한소나기
확률 30% :
일시적
01일 07시부터 01일 12시까지 (UTC)
북북동12kt, 순간 최대 풍속 22kt
시정: 4000m
고도 3000ft 상공 구름 많음, 적란운.
뇌우, 비
전환 중
01일 16시부터 01일 18시까지 (UTC)
여러 방향의 바람 2kt
시정 10km 이상
1500m 미만 상공 구름 및 적란운 없음

TAF: OAKB 311705Z 3118/0118 VRB02KT 7000 FEW010 SCT020 BKN040 BECMG 0102/0104 34008KT 9999 SCT040 BECMG 0104/0106 BKN040 TEMPO 0106/0114 8000 -SHRA SCT030 BKN050 PROB30 TEMPO 0107/0112 02012G22KT 4000 TSRA BKN030CB BECMG 0116/0118 VRB02KT CAVOK

4,000개 이상의 공항 관측 자료 및 예보 (METAR 및 TAF 보고).

지도상에서 검색 가능한 기상관측소가 노란 점과 빨간 점으로 표시되어 있습니다.

기상관측소 명을 보려면 표시 위로 마우스를 이동하세요.

날씨 관측과 예보를 보려면 클릭하세요.

지도 변경 : 확대하려면 엑스 표시가 있는 녹색 버튼, 축소하려면 빼기 표시가 있는 녹색 버튼, 다음 페이지의 지도를 보려면 녹색 화살표를 클릭하세요.


METAR-TAF: